sensor_id;sensor_type;location;lat;lon;timestamp;P1;durP1;ratioP1;P2;durP2;ratioP2
38208;SDS011;24016;52.102;11.584;2023-10-19T00:00:30;13.55;;;10.48;;
38208;SDS011;24016;52.102;11.584;2023-10-19T00:02:58;11.70;;;10.00;;
38208;SDS011;24016;52.102;11.584;2023-10-19T00:05:27;15.85;;;10.55;;
38208;SDS011;24016;52.102;11.584;2023-10-19T00:07:57;15.38;;;9.80;;
38208;SDS011;24016;52.102;11.584;2023-10-19T00:10:24;15.75;;;10.52;;
38208;SDS011;24016;52.102;11.584;2023-10-19T00:12:54;14.45;;;10.30;;
38208;SDS011;24016;52.102;11.584;2023-10-19T00:15:29;12.82;;;9.68;;
38208;SDS011;24016;52.102;11.584;2023-10-19T00:17:57;12.88;;;10.30;;
38208;SDS011;24016;52.102;11.584;2023-10-19T00:20:31;15.15;;;10.82;;
38208;SDS011;24016;52.102;11.584;2023-10-19T00:23:15;13.95;;;10.93;;
38208;SDS011;24016;52.102;11.584;2023-10-19T00:25:46;14.75;;;9.82;;
38208;SDS011;24016;52.102;11.584;2023-10-19T00:28:19;14.15;;;10.52;;
38208;SDS011;24016;52.102;11.584;2023-10-19T00:30:47;13.18;;;10.38;;
38208;SDS011;24016;52.102;11.584;2023-10-19T00:33:14;14.50;;;9.23;;
38208;SDS011;24016;52.102;11.584;2023-10-19T00:35:45;14.27;;;10.73;;
38208;SDS011;24016;52.102;11.584;2023-10-19T00:38:30;11.35;;;9.60;;
38208;SDS011;24016;52.102;11.584;2023-10-19T00:40:58;15.13;;;10.40;;
38208;SDS011;24016;52.102;11.584;2023-10-19T00:43:28;12.57;;;9.68;;
38208;SDS011;24016;52.102;11.584;2023-10-19T00:45:58;13.65;;;10.27;;
38208;SDS011;24016;52.102;11.584;2023-10-19T00:48:26;15.85;;;9.40;;
38208;SDS011;24016;52.102;11.584;2023-10-19T00:50:53;13.93;;;10.23;;
38208;SDS011;24016;52.102;11.584;2023-10-19T00:53:31;13.40;;;9.82;;
38208;SDS011;24016;52.102;11.584;2023-10-19T00:56:03;13.47;;;10.03;;
38208;SDS011;24016;52.102;11.584;2023-10-19T00:58:31;13.57;;;9.90;;
38208;SDS011;24016;52.102;11.584;2023-10-19T01:01:01;12.27;;;10.38;;
38208;SDS011;24016;52.102;11.584;2023-10-19T01:03:30;12.88;;;9.75;;
38208;SDS011;24016;52.102;11.584;2023-10-19T01:06:01;13.40;;;10.25;;
38208;SDS011;24016;52.102;11.584;2023-10-19T01:08:34;15.30;;;10.32;;
38208;SDS011;24016;52.102;11.584;2023-10-19T01:11:09;16.45;;;10.57;;
38208;SDS011;24016;52.102;11.584;2023-10-19T01:13:39;14.48;;;10.25;;
38208;SDS011;24016;52.102;11.584;2023-10-19T01:16:12;15.15;;;10.55;;
38208;SDS011;24016;52.102;11.584;2023-10-19T01:18:45;13.23;;;10.55;;
38208;SDS011;24016;52.102;11.584;2023-10-19T01:21:21;13.55;;;11.18;;
38208;SDS011;24016;52.102;11.584;2023-10-19T01:23:50;18.60;;;11.02;;
38208;SDS011;24016;52.102;11.584;2023-10-19T01:26:15;15.02;;;11.13;;
38208;SDS011;24016;52.102;11.584;2023-10-19T01:28:51;14.60;;;11.50;;
38208;SDS011;24016;52.102;11.584;2023-10-19T01:31:23;17.75;;;11.35;;
38208;SDS011;24016;52.102;11.584;2023-10-19T01:36:22;13.98;;;11.23;;
38208;SDS011;24016;52.102;11.584;2023-10-19T01:38:48;16.27;;;11.98;;
38208;SDS011;24016;52.102;11.584;2023-10-19T01:41:14;16.55;;;12.38;;
38208;SDS011;24016;52.102;11.584;2023-10-19T01:43:46;18.05;;;12.73;;
38208;SDS011;24016;52.102;11.584;2023-10-19T01:46:14;16.60;;;12.77;;
38208;SDS011;24016;52.102;11.584;2023-10-19T01:48:47;17.38;;;13.68;;
38208;SDS011;24016;52.102;11.584;2023-10-19T01:51:20;18.90;;;13.32;;
38208;SDS011;24016;52.102;11.584;2023-10-19T01:53:46;18.05;;;13.93;;
38208;SDS011;24016;52.102;11.584;2023-10-19T01:56:13;18.33;;;13.75;;
38208;SDS011;24016;52.102;11.584;2023-10-19T01:58:41;22.33;;;14.30;;
38208;SDS011;24016;52.102;11.584;2023-10-19T02:01:07;20.27;;;13.52;;
38208;SDS011;24016;52.102;11.584;2023-10-19T02:03:40;18.58;;;13.32;;
38208;SDS011;24016;52.102;11.584;2023-10-19T02:06:09;18.83;;;14.65;;
38208;SDS011;24016;52.102;11.584;2023-10-19T02:08:51;16.60;;;13.90;;
38208;SDS011;24016;52.102;11.584;2023-10-19T02:11:25;18.60;;;14.02;;
38208;SDS011;24016;52.102;11.584;2023-10-19T02:13:52;19.77;;;13.88;;
38208;SDS011;24016;52.102;11.584;2023-10-19T02:16:19;18.30;;;14.50;;
38208;SDS011;24016;52.102;11.584;2023-10-19T02:18:49;19.38;;;14.93;;
38208;SDS011;24016;52.102;11.584;2023-10-19T02:21:15;20.15;;;15.93;;
38208;SDS011;24016;52.102;11.584;2023-10-19T02:23:47;20.50;;;15.52;;
38208;SDS011;24016;52.102;11.584;2023-10-19T02:26:21;22.45;;;15.35;;
38208;SDS011;24016;52.102;11.584;2023-10-19T02:28:55;24.05;;;16.08;;
38208;SDS011;24016;52.102;11.584;2023-10-19T02:31:21;22.98;;;16.13;;
38208;SDS011;24016;52.102;11.584;2023-10-19T02:36:18;21.67;;;16.27;;
38208;SDS011;24016;52.102;11.584;2023-10-19T02:38:45;25.38;;;17.52;;
38208;SDS011;24016;52.102;11.584;2023-10-19T02:41:17;22.25;;;17.55;;
38208;SDS011;24016;52.102;11.584;2023-10-19T02:43:44;24.67;;;16.73;;
38208;SDS011;24016;52.102;11.584;2023-10-19T02:46:16;24.13;;;17.13;;
38208;SDS011;24016;52.102;11.584;2023-10-19T02:48:43;26.92;;;18.25;;
38208;SDS011;24016;52.102;11.584;2023-10-19T02:51:14;28.92;;;19.30;;
38208;SDS011;24016;52.102;11.584;2023-10-19T02:53:40;29.25;;;18.48;;
38208;SDS011;24016;52.102;11.584;2023-10-19T02:56:14;29.48;;;20.05;;
38208;SDS011;24016;52.102;11.584;2023-10-19T02:58:49;28.60;;;19.08;;
38208;SDS011;24016;52.102;11.584;2023-10-19T03:01:18;30.17;;;21.40;;
38208;SDS011;24016;52.102;11.584;2023-10-19T03:03:52;30.15;;;19.90;;
38208;SDS011;24016;52.102;11.584;2023-10-19T03:06:20;29.20;;;20.73;;
38208;SDS011;24016;52.102;11.584;2023-10-19T03:08:47;30.45;;;19.52;;
38208;SDS011;24016;52.102;11.584;2023-10-19T03:11:22;30.85;;;20.33;;
38208;SDS011;24016;52.102;11.584;2023-10-19T03:13:49;33.78;;;20.70;;
38208;SDS011;24016;52.102;11.584;2023-10-19T03:16:15;28.95;;;20.45;;
38208;SDS011;24016;52.102;11.584;2023-10-19T03:18:42;32.92;;;20.73;;
38208;SDS011;24016;52.102;11.584;2023-10-19T03:21:08;34.38;;;21.35;;
38208;SDS011;24016;52.102;11.584;2023-10-19T03:23:36;31.75;;;21.83;;
38208;SDS011;24016;52.102;11.584;2023-10-19T03:26:02;32.10;;;20.77;;
38208;SDS011;24016;52.102;11.584;2023-10-19T03:28:47;33.33;;;20.67;;
38208;SDS011;24016;52.102;11.584;2023-10-19T03:31:12;38.65;;;21.60;;
38208;SDS011;24016;52.102;11.584;2023-10-19T03:33:43;36.13;;;22.05;;
38208;SDS011;24016;52.102;11.584;2023-10-19T03:36:09;35.40;;;22.83;;
38208;SDS011;24016;52.102;11.584;2023-10-19T03:38:38;36.92;;;22.02;;
38208;SDS011;24016;52.102;11.584;2023-10-19T03:41:05;33.35;;;21.13;;
38208;SDS011;24016;52.102;11.584;2023-10-19T03:43:35;37.33;;;22.40;;
38208;SDS011;24016;52.102;11.584;2023-10-19T03:46:05;39.13;;;22.15;;
38208;SDS011;24016;52.102;11.584;2023-10-19T03:48:43;39.35;;;22.67;;
38208;SDS011;24016;52.102;11.584;2023-10-19T03:51:11;37.65;;;22.88;;
38208;SDS011;24016;52.102;11.584;2023-10-19T03:53:38;35.00;;;21.48;;
38208;SDS011;24016;52.102;11.584;2023-10-19T03:56:08;34.88;;;22.95;;
38208;SDS011;24016;52.102;11.584;2023-10-19T03:58:36;45.65;;;24.35;;
38208;SDS011;24016;52.102;11.584;2023-10-19T04:01:04;39.33;;;23.65;;
38208;SDS011;24016;52.102;11.584;2023-10-19T04:03:30;41.30;;;23.35;;
38208;SDS011;24016;52.102;11.584;2023-10-19T04:05:56;42.50;;;23.90;;
38208;SDS011;24016;52.102;11.584;2023-10-19T04:08:25;38.78;;;23.00;;
38208;SDS011;24016;52.102;11.584;2023-10-19T04:10:52;35.17;;;22.58;;
38208;SDS011;24016;52.102;11.584;2023-10-19T04:13:36;36.95;;;21.88;;
38208;SDS011;24016;52.102;11.584;2023-10-19T04:16:03;33.88;;;22.88;;
38208;SDS011;24016;52.102;11.584;2023-10-19T04:18:33;38.97;;;23.45;;
38208;SDS011;24016;52.102;11.584;2023-10-19T04:21:00;33.95;;;22.42;;
38208;SDS011;24016;52.102;11.584;2023-10-19T04:23:28;38.53;;;22.27;;
38208;SDS011;24016;52.102;11.584;2023-10-19T04:25:54;37.22;;;23.23;;
38208;SDS011;24016;52.102;11.584;2023-10-19T04:28:23;40.58;;;22.83;;
38208;SDS011;24016;52.102;11.584;2023-10-19T04:31:18;41.33;;;22.55;;
38208;SDS011;24016;52.102;11.584;2023-10-19T04:33:44;39.75;;;23.67;;
38208;SDS011;24016;52.102;11.584;2023-10-19T04:36:14;36.50;;;23.10;;
38208;SDS011;24016;52.102;11.584;2023-10-19T04:38:41;40.20;;;23.42;;
38208;SDS011;24016;52.102;11.584;2023-10-19T04:41:07;41.75;;;22.98;;
38208;SDS011;24016;52.102;11.584;2023-10-19T04:43:34;39.47;;;22.83;;
38208;SDS011;24016;52.102;11.584;2023-10-19T04:46:04;36.30;;;23.25;;
38208;SDS011;24016;52.102;11.584;2023-10-19T04:48:33;39.65;;;23.33;;
38208;SDS011;24016;52.102;11.584;2023-10-19T04:51:00;39.38;;;23.35;;
38208;SDS011;24016;52.102;11.584;2023-10-19T04:53:26;41.85;;;23.88;;
38208;SDS011;24016;52.102;11.584;2023-10-19T04:55:52;40.95;;;22.15;;
38208;SDS011;24016;52.102;11.584;2023-10-19T04:58:17;40.35;;;23.02;;
38208;SDS011;24016;52.102;11.584;2023-10-19T05:00:43;38.17;;;22.88;;
38208;SDS011;24016;52.102;11.584;2023-10-19T05:03:09;38.80;;;22.30;;
38208;SDS011;24016;52.102;11.584;2023-10-19T05:05:34;39.33;;;22.48;;
38208;SDS011;24016;52.102;11.584;2023-10-19T05:08:00;39.20;;;22.92;;
38208;SDS011;24016;52.102;11.584;2023-10-19T05:10:26;34.28;;;22.38;;
38208;SDS011;24016;52.102;11.584;2023-10-19T05:12:52;38.65;;;23.58;;
38208;SDS011;24016;52.102;11.584;2023-10-19T05:15:20;37.63;;;22.80;;
38208;SDS011;24016;52.102;11.584;2023-10-19T05:17:45;39.63;;;22.90;;
38208;SDS011;24016;52.102;11.584;2023-10-19T05:20:11;44.15;;;23.50;;
38208;SDS011;24016;52.102;11.584;2023-10-19T05:22:36;39.92;;;22.77;;
38208;SDS011;24016;52.102;11.584;2023-10-19T05:25:02;43.13;;;23.20;;
38208;SDS011;24016;52.102;11.584;2023-10-19T05:27:28;42.75;;;23.52;;
38208;SDS011;24016;52.102;11.584;2023-10-19T05:29:54;43.83;;;23.88;;
38208;SDS011;24016;52.102;11.584;2023-10-19T05:32:20;42.22;;;24.10;;
38208;SDS011;24016;52.102;11.584;2023-10-19T05:34:46;39.45;;;24.40;;
38208;SDS011;24016;52.102;11.584;2023-10-19T05:37:12;48.72;;;27.25;;
38208;SDS011;24016;52.102;11.584;2023-10-19T05:39:37;46.22;;;25.35;;
38208;SDS011;24016;52.102;11.584;2023-10-19T05:42:03;44.25;;;25.05;;
38208;SDS011;24016;52.102;11.584;2023-10-19T05:44:29;46.28;;;25.10;;
38208;SDS011;24016;52.102;11.584;2023-10-19T05:46:55;45.38;;;25.05;;
38208;SDS011;24016;52.102;11.584;2023-10-19T05:49:21;41.20;;;23.88;;
38208;SDS011;24016;52.102;11.584;2023-10-19T05:51:49;42.40;;;23.73;;
38208;SDS011;24016;52.102;11.584;2023-10-19T05:54:15;46.83;;;25.88;;
38208;SDS011;24016;52.102;11.584;2023-10-19T05:56:41;43.55;;;25.38;;
38208;SDS011;24016;52.102;11.584;2023-10-19T05:59:07;41.58;;;23.55;;
38208;SDS011;24016;52.102;11.584;2023-10-19T06:01:35;41.38;;;24.90;;
38208;SDS011;24016;52.102;11.584;2023-10-19T06:04:02;45.47;;;25.85;;
38208;SDS011;24016;52.102;11.584;2023-10-19T06:06:28;44.72;;;24.38;;
38208;SDS011;24016;52.102;11.584;2023-10-19T06:08:53;46.55;;;24.63;;
38208;SDS011;24016;52.102;11.584;2023-10-19T06:11:19;42.58;;;25.63;;
38208;SDS011;24016;52.102;11.584;2023-10-19T06:13:47;43.65;;;24.27;;
38208;SDS011;24016;52.102;11.584;2023-10-19T06:16:13;42.10;;;24.55;;
38208;SDS011;24016;52.102;11.584;2023-10-19T06:18:39;46.15;;;26.50;;
38208;SDS011;24016;52.102;11.584;2023-10-19T06:21:04;46.60;;;27.15;;
38208;SDS011;24016;52.102;11.584;2023-10-19T06:23:30;45.00;;;25.58;;
38208;SDS011;24016;52.102;11.584;2023-10-19T06:25:59;50.03;;;26.33;;
38208;SDS011;24016;52.102;11.584;2023-10-19T06:28:29;45.08;;;26.25;;
38208;SDS011;24016;52.102;11.584;2023-10-19T06:30:59;45.35;;;26.88;;
38208;SDS011;24016;52.102;11.584;2023-10-19T06:33:24;49.25;;;27.40;;
38208;SDS011;24016;52.102;11.584;2023-10-19T06:35:50;44.55;;;25.65;;
38208;SDS011;24016;52.102;11.584;2023-10-19T06:38:15;52.53;;;27.75;;
38208;SDS011;24016;52.102;11.584;2023-10-19T06:40:41;46.60;;;27.58;;
38208;SDS011;24016;52.102;11.584;2023-10-19T06:43:07;46.65;;;25.48;;
38208;SDS011;24016;52.102;11.584;2023-10-19T06:45:32;48.28;;;27.40;;
38208;SDS011;24016;52.102;11.584;2023-10-19T06:47:58;46.40;;;26.35;;
38208;SDS011;24016;52.102;11.584;2023-10-19T06:50:25;43.63;;;26.15;;
38208;SDS011;24016;52.102;11.584;2023-10-19T06:52:51;46.72;;;26.23;;
38208;SDS011;24016;52.102;11.584;2023-10-19T06:55:21;48.05;;;26.80;;
38208;SDS011;24016;52.102;11.584;2023-10-19T06:57:51;48.83;;;27.20;;
38208;SDS011;24016;52.102;11.584;2023-10-19T07:00:20;50.70;;;27.98;;
38208;SDS011;24016;52.102;11.584;2023-10-19T07:02:49;50.25;;;28.15;;
38208;SDS011;24016;52.102;11.584;2023-10-19T07:05:18;55.35;;;29.67;;
38208;SDS011;24016;52.102;11.584;2023-10-19T07:07:49;50.35;;;28.23;;
38208;SDS011;24016;52.102;11.584;2023-10-19T07:10:17;50.70;;;28.42;;
38208;SDS011;24016;52.102;11.584;2023-10-19T07:12:44;47.55;;;27.55;;
38208;SDS011;24016;52.102;11.584;2023-10-19T07:15:11;51.22;;;27.70;;
38208;SDS011;24016;52.102;11.584;2023-10-19T07:17:41;55.67;;;28.13;;
38208;SDS011;24016;52.102;11.584;2023-10-19T07:20:07;57.63;;;28.05;;
38208;SDS011;24016;52.102;11.584;2023-10-19T07:22:42;55.55;;;28.02;;
38208;SDS011;24016;52.102;11.584;2023-10-19T07:25:09;51.10;;;28.40;;
38208;SDS011;24016;52.102;11.584;2023-10-19T07:27:36;49.38;;;27.88;;
38208;SDS011;24016;52.102;11.584;2023-10-19T07:30:01;53.28;;;27.95;;
38208;SDS011;24016;52.102;11.584;2023-10-19T07:32:31;55.13;;;28.38;;
38208;SDS011;24016;52.102;11.584;2023-10-19T07:34:58;55.83;;;29.50;;
38208;SDS011;24016;52.102;11.584;2023-10-19T07:37:24;54.45;;;28.88;;
38208;SDS011;24016;52.102;11.584;2023-10-19T07:39:49;51.45;;;29.38;;
38208;SDS011;24016;52.102;11.584;2023-10-19T07:42:17;55.13;;;28.75;;
38208;SDS011;24016;52.102;11.584;2023-10-19T07:44:43;57.08;;;30.60;;
38208;SDS011;24016;52.102;11.584;2023-10-19T07:47:10;53.72;;;28.60;;
38208;SDS011;24016;52.102;11.584;2023-10-19T07:49:37;53.45;;;29.95;;
38208;SDS011;24016;52.102;11.584;2023-10-19T07:52:06;55.55;;;30.27;;
38208;SDS011;24016;52.102;11.584;2023-10-19T07:54:33;57.17;;;30.38;;
38208;SDS011;24016;52.102;11.584;2023-10-19T07:57:00;52.75;;;28.13;;
38208;SDS011;24016;52.102;11.584;2023-10-19T07:59:31;57.13;;;28.73;;
38208;SDS011;24016;52.102;11.584;2023-10-19T08:01:57;55.83;;;29.25;;
38208;SDS011;24016;52.102;11.584;2023-10-19T08:04:27;65.68;;;32.97;;
38208;SDS011;24016;52.102;11.584;2023-10-19T08:06:56;55.75;;;30.50;;
38208;SDS011;24016;52.102;11.584;2023-10-19T08:09:23;59.00;;;29.98;;
38208;SDS011;24016;52.102;11.584;2023-10-19T08:11:49;55.97;;;30.88;;
38208;SDS011;24016;52.102;11.584;2023-10-19T08:14:20;50.83;;;30.00;;
38208;SDS011;24016;52.102;11.584;2023-10-19T08:16:49;61.15;;;31.08;;
38208;SDS011;24016;52.102;11.584;2023-10-19T08:19:15;53.22;;;30.80;;
38208;SDS011;24016;52.102;11.584;2023-10-19T08:21:41;60.58;;;32.45;;
38208;SDS011;24016;52.102;11.584;2023-10-19T08:24:07;54.50;;;30.05;;
38208;SDS011;24016;52.102;11.584;2023-10-19T08:26:38;59.30;;;31.05;;
38208;SDS011;24016;52.102;11.584;2023-10-19T08:29:04;54.78;;;30.52;;
38208;SDS011;24016;52.102;11.584;2023-10-19T08:31:37;53.88;;;31.40;;
38208;SDS011;24016;52.102;11.584;2023-10-19T08:34:04;59.35;;;32.10;;
38208;SDS011;24016;52.102;11.584;2023-10-19T08:36:30;64.97;;;32.83;;
38208;SDS011;24016;52.102;11.584;2023-10-19T08:38:56;62.17;;;31.27;;
38208;SDS011;24016;52.102;11.584;2023-10-19T08:41:22;59.67;;;32.47;;
38208;SDS011;24016;52.102;11.584;2023-10-19T08:43:48;62.90;;;33.08;;
38208;SDS011;24016;52.102;11.584;2023-10-19T08:46:15;63.65;;;31.23;;
38208;SDS011;24016;52.102;11.584;2023-10-19T08:48:41;54.50;;;30.48;;
38208;SDS011;24016;52.102;11.584;2023-10-19T08:51:09;56.20;;;31.15;;
38208;SDS011;24016;52.102;11.584;2023-10-19T08:53:38;57.30;;;32.13;;
38208;SDS011;24016;52.102;11.584;2023-10-19T08:56:06;52.35;;;29.77;;
38208;SDS011;24016;52.102;11.584;2023-10-19T08:58:32;61.20;;;32.10;;
38208;SDS011;24016;52.102;11.584;2023-10-19T09:00:58;56.58;;;30.90;;
38208;SDS011;24016;52.102;11.584;2023-10-19T09:03:31;49.70;;;28.95;;
38208;SDS011;24016;52.102;11.584;2023-10-19T09:05:57;45.95;;;29.33;;
38208;SDS011;24016;52.102;11.584;2023-10-19T09:08:26;51.83;;;30.55;;
38208;SDS011;24016;52.102;11.584;2023-10-19T09:11:05;50.30;;;29.45;;
38208;SDS011;24016;52.102;11.584;2023-10-19T09:13:51;51.03;;;30.75;;
38208;SDS011;24016;52.102;11.584;2023-10-19T09:16:20;59.53;;;32.78;;
38208;SDS011;24016;52.102;11.584;2023-10-19T09:18:47;45.75;;;28.77;;
38208;SDS011;24016;52.102;11.584;2023-10-19T09:21:17;52.15;;;27.83;;
38208;SDS011;24016;52.102;11.584;2023-10-19T09:23:50;47.40;;;28.33;;
38208;SDS011;24016;52.102;11.584;2023-10-19T09:26:17;56.47;;;30.05;;
38208;SDS011;24016;52.102;11.584;2023-10-19T09:28:45;46.95;;;28.38;;
38208;SDS011;24016;52.102;11.584;2023-10-19T09:31:15;45.15;;;27.67;;
38208;SDS011;24016;52.102;11.584;2023-10-19T09:33:41;42.13;;;27.33;;
38208;SDS011;24016;52.102;11.584;2023-10-19T09:36:08;47.00;;;28.77;;
38208;SDS011;24016;52.102;11.584;2023-10-19T09:38:50;46.83;;;28.15;;
38208;SDS011;24016;52.102;11.584;2023-10-19T09:41:22;47.45;;;29.35;;
38208;SDS011;24016;52.102;11.584;2023-10-19T09:43:53;51.63;;;29.63;;
38208;SDS011;24016;52.102;11.584;2023-10-19T09:46:29;53.25;;;30.05;;
38208;SDS011;24016;52.102;11.584;2023-10-19T09:48:56;52.80;;;30.27;;
38208;SDS011;24016;52.102;11.584;2023-10-19T09:51:23;51.35;;;29.83;;
38208;SDS011;24016;52.102;11.584;2023-10-19T09:53:55;51.30;;;30.58;;
38208;SDS011;24016;52.102;11.584;2023-10-19T09:56:32;54.45;;;30.20;;
38208;SDS011;24016;52.102;11.584;2023-10-19T09:59:11;56.22;;;31.15;;
38208;SDS011;24016;52.102;11.584;2023-10-19T10:02:03;56.65;;;30.25;;
38208;SDS011;24016;52.102;11.584;2023-10-19T10:04:30;49.13;;;29.60;;
38208;SDS011;24016;52.102;11.584;2023-10-19T10:06:57;47.95;;;30.63;;
38208;SDS011;24016;52.102;11.584;2023-10-19T10:09:28;48.83;;;28.48;;
38208;SDS011;24016;52.102;11.584;2023-10-19T10:11:55;44.65;;;28.65;;
38208;SDS011;24016;52.102;11.584;2023-10-19T10:14:25;46.85;;;28.90;;
38208;SDS011;24016;52.102;11.584;2023-10-19T10:17:03;49.80;;;29.10;;
38208;SDS011;24016;52.102;11.584;2023-10-19T10:19:34;48.05;;;28.52;;
38208;SDS011;24016;52.102;11.584;2023-10-19T10:22:03;40.85;;;26.67;;
38208;SDS011;24016;52.102;11.584;2023-10-19T10:24:44;43.53;;;26.85;;
38208;SDS011;24016;52.102;11.584;2023-10-19T10:27:09;41.65;;;27.02;;
38208;SDS011;24016;52.102;11.584;2023-10-19T10:29:51;43.25;;;26.75;;
38208;SDS011;24016;52.102;11.584;2023-10-19T10:38:07;39.92;;;25.40;;
38208;SDS011;24016;52.102;11.584;2023-10-19T10:40:42;39.75;;;25.67;;
38208;SDS011;24016;52.102;11.584;2023-10-19T10:43:12;42.58;;;25.95;;
38208;SDS011;24016;52.102;11.584;2023-10-19T10:45:38;39.60;;;25.15;;
38208;SDS011;24016;52.102;11.584;2023-10-19T10:48:10;36.88;;;24.55;;
38208;SDS011;24016;52.102;11.584;2023-10-19T10:50:40;36.40;;;23.88;;
38208;SDS011;24016;52.102;11.584;2023-10-19T10:53:11;37.08;;;23.95;;
38208;SDS011;24016;52.102;11.584;2023-10-19T10:55:37;37.30;;;24.00;;
38208;SDS011;24016;52.102;11.584;2023-10-19T10:58:04;33.65;;;21.88;;
38208;SDS011;24016;52.102;11.584;2023-10-19T11:00:29;33.75;;;23.38;;
38208;SDS011;24016;52.102;11.584;2023-10-19T11:03:02;36.08;;;22.67;;
38208;SDS011;24016;52.102;11.584;2023-10-19T11:05:32;35.83;;;23.40;;
38208;SDS011;24016;52.102;11.584;2023-10-19T11:08:03;35.13;;;22.15;;
38208;SDS011;24016;52.102;11.584;2023-10-19T11:10:40;31.48;;;21.83;;
38208;SDS011;24016;52.102;11.584;2023-10-19T11:13:11;32.40;;;20.33;;
38208;SDS011;24016;52.102;11.584;2023-10-19T11:15:53;34.80;;;20.95;;
38208;SDS011;24016;52.102;11.584;2023-10-19T11:18:28;28.52;;;20.38;;
38208;SDS011;24016;52.102;11.584;2023-10-19T11:20:55;31.48;;;20.17;;
38208;SDS011;24016;52.102;11.584;2023-10-19T11:23:34;32.53;;;20.02;;
38208;SDS011;24016;52.102;11.584;2023-10-19T11:26:04;33.30;;;20.23;;
38208;SDS011;24016;52.102;11.584;2023-10-19T11:28:30;30.15;;;19.70;;
38208;SDS011;24016;52.102;11.584;2023-10-19T11:31:10;31.88;;;19.92;;
38208;SDS011;24016;52.102;11.584;2023-10-19T11:33:40;33.15;;;20.90;;
38208;SDS011;24016;52.102;11.584;2023-10-19T11:36:07;36.65;;;20.70;;
38208;SDS011;24016;52.102;11.584;2023-10-19T11:38:33;39.22;;;21.77;;
38208;SDS011;24016;52.102;11.584;2023-10-19T11:40:58;32.67;;;20.70;;
38208;SDS011;24016;52.102;11.584;2023-10-19T11:43:24;36.17;;;21.20;;
38208;SDS011;24016;52.102;11.584;2023-10-19T11:45:50;33.63;;;21.33;;
38208;SDS011;24016;52.102;11.584;2023-10-19T11:48:16;32.10;;;20.55;;
38208;SDS011;24016;52.102;11.584;2023-10-19T11:50:42;36.03;;;20.77;;
38208;SDS011;24016;52.102;11.584;2023-10-19T11:53:08;35.65;;;21.27;;
38208;SDS011;24016;52.102;11.584;2023-10-19T11:55:35;36.85;;;23.17;;
38208;SDS011;24016;52.102;11.584;2023-10-19T11:58:00;37.00;;;21.70;;
38208;SDS011;24016;52.102;11.584;2023-10-19T12:00:26;36.40;;;22.00;;
38208;SDS011;24016;52.102;11.584;2023-10-19T12:02:58;42.80;;;23.33;;
38208;SDS011;24016;52.102;11.584;2023-10-19T12:05:24;38.53;;;22.83;;
38208;SDS011;24016;52.102;11.584;2023-10-19T12:07:50;34.78;;;22.35;;
38208;SDS011;24016;52.102;11.584;2023-10-19T12:10:17;37.35;;;22.95;;
38208;SDS011;24016;52.102;11.584;2023-10-19T12:12:45;34.05;;;22.73;;
38208;SDS011;24016;52.102;11.584;2023-10-19T12:15:11;35.08;;;21.23;;
38208;SDS011;24016;52.102;11.584;2023-10-19T12:17:37;33.58;;;21.73;;
38208;SDS011;24016;52.102;11.584;2023-10-19T12:20:03;33.28;;;21.80;;
38208;SDS011;24016;52.102;11.584;2023-10-19T12:22:31;37.40;;;22.60;;
38208;SDS011;24016;52.102;11.584;2023-10-19T12:25:01;37.47;;;22.05;;
38208;SDS011;24016;52.102;11.584;2023-10-19T12:27:27;34.40;;;21.58;;
38208;SDS011;24016;52.102;11.584;2023-10-19T12:29:53;32.25;;;20.55;;
38208;SDS011;24016;52.102;11.584;2023-10-19T12:32:19;33.70;;;21.15;;
38208;SDS011;24016;52.102;11.584;2023-10-19T12:34:45;69.43;;;42.75;;
38208;SDS011;24016;52.102;11.584;2023-10-19T12:37:10;38.40;;;22.55;;
38208;SDS011;24016;52.102;11.584;2023-10-19T12:39:38;36.25;;;21.15;;
38208;SDS011;24016;52.102;11.584;2023-10-19T12:42:12;36.28;;;21.17;;
38208;SDS011;24016;52.102;11.584;2023-10-19T12:44:39;38.45;;;21.90;;
38208;SDS011;24016;52.102;11.584;2023-10-19T12:47:06;36.60;;;21.50;;
38208;SDS011;24016;52.102;11.584;2023-10-19T12:49:38;31.95;;;21.73;;
38208;SDS011;24016;52.102;11.584;2023-10-19T12:52:07;46.70;;;31.42;;
38208;SDS011;24016;52.102;11.584;2023-10-19T12:54:34;35.30;;;22.23;;
38208;SDS011;24016;52.102;11.584;2023-10-19T12:57:02;37.05;;;22.33;;
38208;SDS011;24016;52.102;11.584;2023-10-19T12:59:35;33.80;;;23.13;;
38208;SDS011;24016;52.102;11.584;2023-10-19T13:02:07;35.15;;;22.27;;
38208;SDS011;24016;52.102;11.584;2023-10-19T13:04:39;32.53;;;21.90;;
38208;SDS011;24016;52.102;11.584;2023-10-19T13:07:07;34.83;;;22.77;;
38208;SDS011;24016;52.102;11.584;2023-10-19T13:09:33;37.05;;;22.27;;
38208;SDS011;24016;52.102;11.584;2023-10-19T13:12:01;38.72;;;22.95;;
38208;SDS011;24016;52.102;11.584;2023-10-19T13:14:27;35.42;;;22.42;;
38208;SDS011;24016;52.102;11.584;2023-10-19T13:16:53;34.55;;;22.42;;
38208;SDS011;24016;52.102;11.584;2023-10-19T13:19:19;37.60;;;23.98;;
38208;SDS011;24016;52.102;11.584;2023-10-19T13:21:49;35.40;;;23.10;;
38208;SDS011;24016;52.102;11.584;2023-10-19T13:24:15;44.50;;;26.95;;
38208;SDS011;24016;52.102;11.584;2023-10-19T13:26:42;41.70;;;23.98;;
38208;SDS011;24016;52.102;11.584;2023-10-19T13:29:11;48.33;;;24.95;;
38208;SDS011;24016;52.102;11.584;2023-10-19T13:31:37;41.33;;;24.70;;
38208;SDS011;24016;52.102;11.584;2023-10-19T13:34:03;46.33;;;25.38;;
38208;SDS011;24016;52.102;11.584;2023-10-19T13:36:35;45.58;;;25.52;;
38208;SDS011;24016;52.102;11.584;2023-10-19T13:39:01;47.97;;;25.88;;
38208;SDS011;24016;52.102;11.584;2023-10-19T13:41:28;45.88;;;25.55;;
38208;SDS011;24016;52.102;11.584;2023-10-19T13:43:53;44.15;;;25.60;;
38208;SDS011;24016;52.102;11.584;2023-10-19T13:46:20;43.58;;;24.13;;
38208;SDS011;24016;52.102;11.584;2023-10-19T13:48:48;45.25;;;26.40;;
38208;SDS011;24016;52.102;11.584;2023-10-19T13:51:17;55.95;;;26.90;;
38208;SDS011;24016;52.102;11.584;2023-10-19T13:53:53;54.55;;;27.25;;
38208;SDS011;24016;52.102;11.584;2023-10-19T13:56:19;57.30;;;27.25;;
38208;SDS011;24016;52.102;11.584;2023-10-19T13:58:45;50.10;;;27.55;;
38208;SDS011;24016;52.102;11.584;2023-10-19T14:01:12;53.03;;;27.20;;
38208;SDS011;24016;52.102;11.584;2023-10-19T14:03:38;57.30;;;28.90;;
38208;SDS011;24016;52.102;11.584;2023-10-19T14:06:04;60.58;;;31.42;;
38208;SDS011;24016;52.102;11.584;2023-10-19T14:08:30;63.17;;;30.42;;
38208;SDS011;24016;52.102;11.584;2023-10-19T14:11:02;67.43;;;31.95;;
38208;SDS011;24016;52.102;11.584;2023-10-19T14:13:28;61.63;;;30.48;;
38208;SDS011;24016;52.102;11.584;2023-10-19T14:15:54;67.55;;;32.47;;
38208;SDS011;24016;52.102;11.584;2023-10-19T14:18:19;74.30;;;31.90;;
38208;SDS011;24016;52.102;11.584;2023-10-19T14:20:46;70.90;;;32.50;;
38208;SDS011;24016;52.102;11.584;2023-10-19T14:23:12;68.53;;;31.85;;
38208;SDS011;24016;52.102;11.584;2023-10-19T14:25:38;71.80;;;33.78;;
38208;SDS011;24016;52.102;11.584;2023-10-19T14:28:08;71.03;;;33.42;;